sensor_id;sensor_type;location;lat;lon;timestamp;pressure;altitude;pressure_sealevel;temperature;humidity
85850;BME280;76337;42.850;-0.560;2024-02-26T00:02:23;87206.09;;;1.48;90.41
85850;BME280;76337;42.850;-0.560;2024-02-26T00:04:49;87209.66;;;1.45;90.26
85850;BME280;76337;42.850;-0.560;2024-02-26T00:07:16;87199.47;;;1.43;90.89
85850;BME280;76337;42.850;-0.560;2024-02-26T00:09:42;87195.88;;;1.47;91.00
85850;BME280;76337;42.850;-0.560;2024-02-26T00:12:08;87200.50;;;1.50;90.54
85850;BME280;76337;42.850;-0.560;2024-02-26T00:14:34;87198.31;;;1.53;90.57
85850;BME280;76337;42.850;-0.560;2024-02-26T00:17:00;87188.59;;;1.56;90.25
85850;BME280;76337;42.850;-0.560;2024-02-26T00:19:26;87181.88;;;1.53;91.16
85850;BME280;76337;42.850;-0.560;2024-02-26T00:21:51;87189.38;;;1.55;90.22
85850;BME280;76337;42.850;-0.560;2024-02-26T00:24:19;87181.13;;;1.55;89.41
85850;BME280;76337;42.850;-0.560;2024-02-26T00:26:45;87181.03;;;1.57;90.83
85850;BME280;76337;42.850;-0.560;2024-02-26T00:29:10;87189.94;;;1.57;90.30
85850;BME280;76337;42.850;-0.560;2024-02-26T00:31:37;87190.59;;;1.58;89.22
85850;BME280;76337;42.850;-0.560;2024-02-26T00:34:03;87195.22;;;1.61;89.75
85850;BME280;76337;42.850;-0.560;2024-02-26T00:36:29;87194.94;;;1.52;89.56
85850;BME280;76337;42.850;-0.560;2024-02-26T00:38:55;87203.06;;;1.55;90.30
85850;BME280;76337;42.850;-0.560;2024-02-26T00:41:21;87201.91;;;1.49;90.48
85850;BME280;76337;42.850;-0.560;2024-02-26T00:43:47;87212.13;;;1.51;90.09
85850;BME280;76337;42.850;-0.560;2024-02-26T00:46:12;87222.34;;;1.52;91.01
85850;BME280;76337;42.850;-0.560;2024-02-26T00:48:38;87221.31;;;1.60;91.65
85850;BME280;76337;42.850;-0.560;2024-02-26T00:51:04;87240.34;;;1.64;92.22
85850;BME280;76337;42.850;-0.560;2024-02-26T00:53:31;87240.03;;;1.56;91.39
85850;BME280;76337;42.850;-0.560;2024-02-26T00:55:57;87253.03;;;1.40;90.64
85850;BME280;76337;42.850;-0.560;2024-02-26T00:58:25;87257.22;;;1.39;91.55
85850;BME280;76337;42.850;-0.560;2024-02-26T01:00:51;87257.84;;;1.40;92.35
85850;BME280;76337;42.850;-0.560;2024-02-26T01:03:17;87245.47;;;1.41;92.29
85850;BME280;76337;42.850;-0.560;2024-02-26T01:05:43;87246.94;;;1.55;92.97
85850;BME280;76337;42.850;-0.560;2024-02-26T01:08:09;87260.19;;;1.65;93.05
85850;BME280;76337;42.850;-0.560;2024-02-26T01:10:35;87256.97;;;1.60;93.00
85850;BME280;76337;42.850;-0.560;2024-02-26T01:13:02;87245.72;;;1.66;92.77
85850;BME280;76337;42.850;-0.560;2024-02-26T01:15:28;87223.47;;;1.58;91.58
85850;BME280;76337;42.850;-0.560;2024-02-26T01:17:53;87220.84;;;1.56;91.26
85850;BME280;76337;42.850;-0.560;2024-02-26T01:20:19;87230.41;;;1.57;91.56
85850;BME280;76337;42.850;-0.560;2024-02-26T01:22:45;87209.63;;;1.62;90.57
85850;BME280;76337;42.850;-0.560;2024-02-26T01:25:12;87200.81;;;1.59;90.59
85850;BME280;76337;42.850;-0.560;2024-02-26T01:27:38;87189.38;;;1.55;90.81
85850;BME280;76337;42.850;-0.560;2024-02-26T01:30:05;87191.03;;;1.47;90.32
85850;BME280;76337;42.850;-0.560;2024-02-26T01:32:31;87194.75;;;1.57;90.76
85850;BME280;76337;42.850;-0.560;2024-02-26T01:34:58;87194.00;;;1.58;89.81
85850;BME280;76337;42.850;-0.560;2024-02-26T01:37:23;87192.69;;;1.57;90.53
85850;BME280;76337;42.850;-0.560;2024-02-26T01:39:49;87183.69;;;1.59;90.33
85850;BME280;76337;42.850;-0.560;2024-02-26T01:42:15;87188.78;;;1.52;90.51
85850;BME280;76337;42.850;-0.560;2024-02-26T01:44:40;87179.81;;;1.53;89.50
85850;BME280;76337;42.850;-0.560;2024-02-26T01:47:10;87169.50;;;1.54;90.15
85850;BME280;76337;42.850;-0.560;2024-02-26T01:49:37;87168.84;;;1.53;89.55
85850;BME280;76337;42.850;-0.560;2024-02-26T01:52:06;87166.00;;;1.56;89.70
85850;BME280;76337;42.850;-0.560;2024-02-26T01:54:35;87156.38;;;1.57;89.64
85850;BME280;76337;42.850;-0.560;2024-02-26T01:57:04;87152.97;;;1.56;89.68
85850;BME280;76337;42.850;-0.560;2024-02-26T01:59:32;87153.63;;;1.57;90.04
85850;BME280;76337;42.850;-0.560;2024-02-26T02:02:01;87152.28;;;1.56;89.84
85850;BME280;76337;42.850;-0.560;2024-02-26T02:04:30;87142.75;;;1.55;89.95
85850;BME280;76337;42.850;-0.560;2024-02-26T02:06:58;87135.84;;;1.56;91.53
85850;BME280;76337;42.850;-0.560;2024-02-26T02:09:27;87124.97;;;1.53;89.23
85850;BME280;76337;42.850;-0.560;2024-02-26T02:11:54;87132.63;;;1.51;89.41
85850;BME280;76337;42.850;-0.560;2024-02-26T02:14:20;87115.34;;;1.55;91.57
85850;BME280;76337;42.850;-0.560;2024-02-26T02:16:47;87121.94;;;1.45;90.17
85850;BME280;76337;42.850;-0.560;2024-02-26T02:19:13;87119.28;;;1.43;89.88
85850;BME280;76337;42.850;-0.560;2024-02-26T02:21:40;87122.50;;;1.33;89.73
85850;BME280;76337;42.850;-0.560;2024-02-26T02:24:06;87131.13;;;1.39;90.42
85850;BME280;76337;42.850;-0.560;2024-02-26T02:26:32;87145.00;;;1.50;89.93
85850;BME280;76337;42.850;-0.560;2024-02-26T02:28:59;87159.41;;;1.65;89.30
85850;BME280;76337;42.850;-0.560;2024-02-26T02:31:26;87151.44;;;1.88;88.56
85850;BME280;76337;42.850;-0.560;2024-02-26T02:33:52;87149.94;;;1.91;88.37
85850;BME280;76337;42.850;-0.560;2024-02-26T02:36:19;87134.88;;;1.90;88.78
85850;BME280;76337;42.850;-0.560;2024-02-26T02:38:50;87153.63;;;1.86;88.15
85850;BME280;76337;42.850;-0.560;2024-02-26T02:41:17;87148.53;;;1.78;89.25
85850;BME280;76337;42.850;-0.560;2024-02-26T02:43:44;87150.13;;;1.73;90.02
85850;BME280;76337;42.850;-0.560;2024-02-26T02:46:10;87155.88;;;1.67;89.30
85850;BME280;76337;42.850;-0.560;2024-02-26T02:48:38;87164.03;;;1.69;89.02
85850;BME280;76337;42.850;-0.560;2024-02-26T02:51:04;87147.75;;;1.65;90.17
85850;BME280;76337;42.850;-0.560;2024-02-26T02:53:31;87152.41;;;1.68;91.11
85850;BME280;76337;42.850;-0.560;2024-02-26T02:55:57;87144.19;;;1.68;89.91
85850;BME280;76337;42.850;-0.560;2024-02-26T02:58:23;87149.09;;;1.66;89.49
85850;BME280;76337;42.850;-0.560;2024-02-26T03:00:50;87149.75;;;1.66;89.64
85850;BME280;76337;42.850;-0.560;2024-02-26T03:03:17;87161.38;;;1.67;90.10
85850;BME280;76337;42.850;-0.560;2024-02-26T03:05:42;87162.03;;;1.67;89.28
85850;BME280;76337;42.850;-0.560;2024-02-26T03:08:09;87163.44;;;1.66;90.31
85850;BME280;76337;42.850;-0.560;2024-02-26T03:10:36;87151.06;;;1.67;90.11
85850;BME280;76337;42.850;-0.560;2024-02-26T03:13:03;87148.03;;;1.73;90.56
85850;BME280;76337;42.850;-0.560;2024-02-26T03:15:29;87152.41;;;1.83;90.35
85850;BME280;76337;42.850;-0.560;2024-02-26T03:17:55;87155.97;;;1.79;89.16
85850;BME280;76337;42.850;-0.560;2024-02-26T03:20:21;87150.88;;;1.71;89.57
85850;BME280;76337;42.850;-0.560;2024-02-26T03:22:48;87136.03;;;1.66;88.67
85850;BME280;76337;42.850;-0.560;2024-02-26T03:25:14;87138.78;;;1.66;89.70
85850;BME280;76337;42.850;-0.560;2024-02-26T03:27:40;87125.81;;;1.65;89.48
85850;BME280;76337;42.850;-0.560;2024-02-26T03:30:07;87123.28;;;1.61;89.32
85850;BME280;76337;42.850;-0.560;2024-02-26T03:32:34;87128.47;;;1.67;91.17
85850;BME280;76337;42.850;-0.560;2024-02-26T03:35:01;87147.00;;;1.66;90.28
85850;BME280;76337;42.850;-0.560;2024-02-26T03:37:28;87148.63;;;1.61;89.91
85850;BME280;76337;42.850;-0.560;2024-02-26T03:39:55;87148.25;;;1.55;90.14
85850;BME280;76337;42.850;-0.560;2024-02-26T03:42:23;87135.75;;;1.58;90.22
85850;BME280;76337;42.850;-0.560;2024-02-26T03:44:49;87143.22;;;1.59;90.11
85850;BME280;76337;42.850;-0.560;2024-02-26T03:47:16;87152.75;;;1.60;89.69
85850;BME280;76337;42.850;-0.560;2024-02-26T03:49:42;87159.69;;;1.59;89.57
85850;BME280;76337;42.850;-0.560;2024-02-26T03:52:08;87154.84;;;1.60;89.50
85850;BME280;76337;42.850;-0.560;2024-02-26T03:54:35;87168.47;;;1.62;89.29
85850;BME280;76337;42.850;-0.560;2024-02-26T03:57:02;87152.09;;;1.60;91.77
85850;BME280;76337;42.850;-0.560;2024-02-26T03:59:27;87150.69;;;1.61;91.09
85850;BME280;76337;42.850;-0.560;2024-02-26T04:01:54;87159.78;;;1.57;89.92
85850;BME280;76337;42.850;-0.560;2024-02-26T04:04:21;87167.34;;;1.57;89.44
85850;BME280;76337;42.850;-0.560;2024-02-26T04:06:46;87159.28;;;1.52;90.28
85850;BME280;76337;42.850;-0.560;2024-02-26T04:09:14;87142.56;;;1.59;89.68
85850;BME280;76337;42.850;-0.560;2024-02-26T04:11:41;87154.19;;;1.59;89.82
85850;BME280;76337;42.850;-0.560;2024-02-26T04:14:08;87146.63;;;1.60;89.47
85850;BME280;76337;42.850;-0.560;2024-02-26T04:16:37;87150.78;;;1.59;90.20
85850;BME280;76337;42.850;-0.560;2024-02-26T04:19:03;87139.06;;;1.60;89.92
85850;BME280;76337;42.850;-0.560;2024-02-26T04:21:30;87141.06;;;1.62;89.62
85850;BME280;76337;42.850;-0.560;2024-02-26T04:23:56;87134.25;;;1.61;89.84
85850;BME280;76337;42.850;-0.560;2024-02-26T04:26:26;87136.31;;;1.60;89.75
85850;BME280;76337;42.850;-0.560;2024-02-26T04:28:52;87132.25;;;1.59;89.69
85850;BME280;76337;42.850;-0.560;2024-02-26T04:31:19;87117.78;;;1.61;89.60
85850;BME280;76337;42.850;-0.560;2024-02-26T04:33:45;87126.00;;;1.61;89.87
85850;BME280;76337;42.850;-0.560;2024-02-26T04:36:13;87130.91;;;1.58;89.75
85850;BME280;76337;42.850;-0.560;2024-02-26T04:38:43;87128.00;;;1.62;89.01
85850;BME280;76337;42.850;-0.560;2024-02-26T04:41:10;87133.47;;;1.62;89.02
85850;BME280;76337;42.850;-0.560;2024-02-26T04:43:37;87138.88;;;1.64;89.79
85850;BME280;76337;42.850;-0.560;2024-02-26T04:46:08;87128.75;;;1.61;89.50
85850;BME280;76337;42.850;-0.560;2024-02-26T04:48:35;87136.78;;;1.65;90.00
85850;BME280;76337;42.850;-0.560;2024-02-26T04:51:03;87104.72;;;1.76;88.57
85850;BME280;76337;42.850;-0.560;2024-02-26T04:53:30;87112.69;;;1.67;88.35
85850;BME280;76337;42.850;-0.560;2024-02-26T04:55:57;87116.09;;;1.68;89.32
85850;BME280;76337;42.850;-0.560;2024-02-26T04:58:23;87121.56;;;1.68;89.44
85850;BME280;76337;42.850;-0.560;2024-02-26T05:00:50;87127.78;;;1.66;88.91
85850;BME280;76337;42.850;-0.560;2024-02-26T05:03:17;87117.41;;;1.83;87.58
85850;BME280;76337;42.850;-0.560;2024-02-26T05:05:44;87131.13;;;1.83;87.89
85850;BME280;76337;42.850;-0.560;2024-02-26T05:08:11;87131.13;;;1.83;87.95
85850;BME280;76337;42.850;-0.560;2024-02-26T05:10:38;87130.00;;;1.78;89.97
85850;BME280;76337;42.850;-0.560;2024-02-26T05:13:07;87135.66;;;1.74;88.35
85850;BME280;76337;42.850;-0.560;2024-02-26T05:15:33;87132.25;;;1.74;88.99
85850;BME280;76337;42.850;-0.560;2024-02-26T05:18:00;87137.16;;;1.71;89.17
85850;BME280;76337;42.850;-0.560;2024-02-26T05:20:25;87144.81;;;1.69;89.01
85850;BME280;76337;42.850;-0.560;2024-02-26T05:22:54;87149.84;;;1.64;89.07
85850;BME280;76337;42.850;-0.560;2024-02-26T05:25:21;87153.16;;;1.67;89.21
85850;BME280;76337;42.850;-0.560;2024-02-26T05:27:47;87154.28;;;1.72;86.78
85850;BME280;76337;42.850;-0.560;2024-02-26T05:30:19;87161.19;;;1.71;88.44
85850;BME280;76337;42.850;-0.560;2024-02-26T05:32:46;87152.56;;;1.64;88.84
85850;BME280;76337;42.850;-0.560;2024-02-26T05:35:12;87158.53;;;1.69;88.50
85850;BME280;76337;42.850;-0.560;2024-02-26T05:37:38;87163.38;;;1.68;88.36
85850;BME280;76337;42.850;-0.560;2024-02-26T05:40:06;87170.28;;;1.67;88.49
85850;BME280;76337;42.850;-0.560;2024-02-26T05:42:32;87173.78;;;1.66;89.28
85850;BME280;76337;42.850;-0.560;2024-02-26T05:44:59;87171.22;;;1.62;89.27
85850;BME280;76337;42.850;-0.560;2024-02-26T05:47:33;87183.50;;;1.63;89.28
85850;BME280;76337;42.850;-0.560;2024-02-26T05:49:59;87169.25;;;1.75;87.60
85850;BME280;76337;42.850;-0.560;2024-02-26T05:52:28;87186.63;;;1.69;88.05
85850;BME280;76337;42.850;-0.560;2024-02-26T05:54:57;87191.94;;;1.88;86.85
85850;BME280;76337;42.850;-0.560;2024-02-26T05:57:23;87165.44;;;1.97;83.95
85850;BME280;76337;42.850;-0.560;2024-02-26T05:59:49;87178.69;;;2.07;84.31
85850;BME280;76337;42.850;-0.560;2024-02-26T06:02:16;87186.91;;;1.92;87.04
85850;BME280;76337;42.850;-0.560;2024-02-26T06:04:41;87198.38;;;1.82;87.50
85850;BME280;76337;42.850;-0.560;2024-02-26T06:07:08;87181.06;;;1.71;88.59
85850;BME280;76337;42.850;-0.560;2024-02-26T06:09:35;87191.44;;;1.69;87.25
85850;BME280;76337;42.850;-0.560;2024-02-26T06:12:02;87190.97;;;1.64;87.62
85850;BME280;76337;42.850;-0.560;2024-02-26T06:14:28;87199.88;;;1.65;87.59
85850;BME280;76337;42.850;-0.560;2024-02-26T06:16:55;87196.53;;;1.62;87.58
85850;BME280;76337;42.850;-0.560;2024-02-26T06:19:22;87192.50;;;1.61;87.51
85850;BME280;76337;42.850;-0.560;2024-02-26T06:21:48;87197.41;;;1.59;88.00
85850;BME280;76337;42.850;-0.560;2024-02-26T06:24:15;87188.13;;;1.51;87.43
85850;BME280;76337;42.850;-0.560;2024-02-26T06:26:41;87194.94;;;1.67;85.29
85850;BME280;76337;42.850;-0.560;2024-02-26T06:29:08;87197.31;;;1.61;86.43
85850;BME280;76337;42.850;-0.560;2024-02-26T06:31:33;87177.25;;;1.49;89.77
85850;BME280;76337;42.850;-0.560;2024-02-26T06:34:00;87187.25;;;1.40;87.80
85850;BME280;76337;42.850;-0.560;2024-02-26T06:36:26;87190.44;;;1.30;88.66
85850;BME280;76337;42.850;-0.560;2024-02-26T06:38:53;87186.47;;;1.27;88.36
85850;BME280;76337;42.850;-0.560;2024-02-26T06:41:20;87187.88;;;1.26;88.63
85850;BME280;76337;42.850;-0.560;2024-02-26T06:43:47;87189.88;;;1.28;89.01
85850;BME280;76337;42.850;-0.560;2024-02-26T06:46:14;87185.88;;;1.25;89.16
85850;BME280;76337;42.850;-0.560;2024-02-26T06:48:41;87190.06;;;1.24;89.02
85850;BME280;76337;42.850;-0.560;2024-02-26T06:51:07;87185.75;;;1.43;85.60
85850;BME280;76337;42.850;-0.560;2024-02-26T06:53:34;87186.91;;;1.63;81.20
85850;BME280;76337;42.850;-0.560;2024-02-26T06:56:00;87192.84;;;1.53;84.44
85850;BME280;76337;42.850;-0.560;2024-02-26T06:58:26;87195.19;;;1.46;86.35
85850;BME280;76337;42.850;-0.560;2024-02-26T07:00:52;87206.53;;;1.38;87.10
85850;BME280;76337;42.850;-0.560;2024-02-26T07:03:18;87201.91;;;1.35;88.93
85850;BME280;76337;42.850;-0.560;2024-02-26T07:05:44;87206.81;;;1.32;89.00
85850;BME280;76337;42.850;-0.560;2024-02-26T07:08:11;87222.75;;;1.28;87.17
85850;BME280;76337;42.850;-0.560;2024-02-26T07:10:37;87226.84;;;1.29;88.18
85850;BME280;76337;42.850;-0.560;2024-02-26T07:13:03;87214.75;;;1.38;86.12
85850;BME280;76337;42.850;-0.560;2024-02-26T07:15:29;87222.69;;;1.44;85.87
85850;BME280;76337;42.850;-0.560;2024-02-26T07:17:55;87221.28;;;1.45;86.12
85850;BME280;76337;42.850;-0.560;2024-02-26T07:20:21;87229.72;;;1.41;85.29
85850;BME280;76337;42.850;-0.560;2024-02-26T07:22:46;87242.75;;;1.41;87.71
85850;BME280;76337;42.850;-0.560;2024-02-26T07:25:12;87243.59;;;1.37;87.47
85850;BME280;76337;42.850;-0.560;2024-02-26T07:27:39;87245.00;;;1.36;87.76
85850;BME280;76337;42.850;-0.560;2024-02-26T07:30:06;87245.75;;;1.35;87.55
85850;BME280;76337;42.850;-0.560;2024-02-26T07:32:34;87246.72;;;1.44;84.80
85850;BME280;76337;42.850;-0.560;2024-02-26T07:34:59;87246.34;;;1.37;87.14
85850;BME280;76337;42.850;-0.560;2024-02-26T07:37:25;87244.81;;;1.40;86.28
85850;BME280;76337;42.850;-0.560;2024-02-26T07:39:51;87241.50;;;1.38;87.18
85850;BME280;76337;42.850;-0.560;2024-02-26T07:42:17;87249.72;;;1.38;87.96
85850;BME280;76337;42.850;-0.560;2024-02-26T07:44:43;87251.72;;;1.39;88.69
85850;BME280;76337;42.850;-0.560;2024-02-26T07:47:09;87255.59;;;1.44;89.59
85850;BME280;76337;42.850;-0.560;2024-02-26T07:49:35;87252.47;;;1.38;88.40
85850;BME280;76337;42.850;-0.560;2024-02-26T07:52:01;87254.38;;;1.41;88.15
85850;BME280;76337;42.850;-0.560;2024-02-26T07:54:26;87249.97;;;1.48;88.54
85850;BME280;76337;42.850;-0.560;2024-02-26T07:56:52;87257.03;;;1.43;86.11
85850;BME280;76337;42.850;-0.560;2024-02-26T07:59:18;87258.34;;;1.44;85.75
85850;BME280;76337;42.850;-0.560;2024-02-26T08:01:44;87250.78;;;1.45;84.28
85850;BME280;76337;42.850;-0.560;2024-02-26T08:04:11;87250.03;;;1.46;85.15
85850;BME280;76337;42.850;-0.560;2024-02-26T08:06:36;87245.97;;;1.45;81.19
85850;BME280;76337;42.850;-0.560;2024-02-26T08:09:02;87240.88;;;1.52;86.16
85850;BME280;76337;42.850;-0.560;2024-02-26T08:11:29;87250.75;;;1.62;82.59
85850;BME280;76337;42.850;-0.560;2024-02-26T08:13:54;87250.75;;;1.62;82.68
85850;BME280;76337;42.850;-0.560;2024-02-26T08:16:20;87255.28;;;1.67;82.56
85850;BME280;76337;42.850;-0.560;2024-02-26T08:18:46;87246.72;;;1.90;81.73
85850;BME280;76337;42.850;-0.560;2024-02-26T08:21:12;87241.06;;;1.94;86.13
85850;BME280;76337;42.850;-0.560;2024-02-26T08:23:38;87247.84;;;1.95;86.04
85850;BME280;76337;42.850;-0.560;2024-02-26T08:26:03;87240.28;;;1.81;83.98
85850;BME280;76337;42.850;-0.560;2024-02-26T08:28:32;87235.84;;;2.02;81.81
85850;BME280;76337;42.850;-0.560;2024-02-26T08:30:58;87240.28;;;2.10;80.74
85850;BME280;76337;42.850;-0.560;2024-02-26T08:33:24;87246.81;;;2.17;83.70
85850;BME280;76337;42.850;-0.560;2024-02-26T08:35:49;87243.41;;;2.16;79.97
85850;BME280;76337;42.850;-0.560;2024-02-26T08:38:15;87239.34;;;2.15;77.86
85850;BME280;76337;42.850;-0.560;2024-02-26T08:40:41;87230.06;;;2.23;78.97
85850;BME280;76337;42.850;-0.560;2024-02-26T08:43:06;87231.97;;;2.41;78.33
85850;BME280;76337;42.850;-0.560;2024-02-26T08:45:33;87234.16;;;3.49;79.05
85850;BME280;76337;42.850;-0.560;2024-02-26T08:48:00;87249.84;;;3.78;71.16
85850;BME280;76337;42.850;-0.560;2024-02-26T08:50:28;87255.34;;;3.78;72.56
85850;BME280;76337;42.850;-0.560;2024-02-26T08:52:54;87231.44;;;5.13;75.80
85850;BME280;76337;42.850;-0.560;2024-02-26T08:55:21;87221.50;;;5.18;68.43
85850;BME280;76337;42.850;-0.560;2024-02-26T08:57:47;87209.50;;;5.93;70.75
85850;BME280;76337;42.850;-0.560;2024-02-26T09:00:15;87214.84;;;6.18;62.36
85850;BME280;76337;42.850;-0.560;2024-02-26T09:02:43;87214.94;;;6.94;68.93
85850;BME280;76337;42.850;-0.560;2024-02-26T09:05:10;87225.50;;;7.66;67.10
85850;BME280;76337;42.850;-0.560;2024-02-26T09:07:37;87223.56;;;6.23;65.38
85850;BME280;76337;42.850;-0.560;2024-02-26T09:10:04;87241.63;;;5.40;64.05
85850;BME280;76337;42.850;-0.560;2024-02-26T09:12:31;87238.75;;;5.42;65.69
85850;BME280;76337;42.850;-0.560;2024-02-26T09:14:58;87241.09;;;5.96;60.46
85850;BME280;76337;42.850;-0.560;2024-02-26T09:17:25;87236.16;;;5.86;62.70
85850;BME280;76337;42.850;-0.560;2024-02-26T09:19:51;87253.13;;;5.67;68.72
85850;BME280;76337;42.850;-0.560;2024-02-26T09:22:17;87249.97;;;6.09;63.11
85850;BME280;76337;42.850;-0.560;2024-02-26T09:24:44;87248.03;;;5.72;66.92
85850;BME280;76337;42.850;-0.560;2024-02-26T09:27:11;87248.22;;;5.45;65.71
85850;BME280;76337;42.850;-0.560;2024-02-26T09:29:38;87252.50;;;5.54;65.15
85850;BME280;76337;42.850;-0.560;2024-02-26T09:32:16;87243.91;;;6.07;59.94
85850;BME280;76337;42.850;-0.560;2024-02-26T09:34:50;87247.13;;;5.75;60.71
85850;BME280;76337;42.850;-0.560;2024-02-26T09:37:17;87249.50;;;5.22;68.21
85850;BME280;76337;42.850;-0.560;2024-02-26T09:39:42;87258.91;;;5.15;66.56
85850;BME280;76337;42.850;-0.560;2024-02-26T09:42:09;87257.53;;;4.91;65.57
85850;BME280;76337;42.850;-0.560;2024-02-26T09:44:40;87245.16;;;5.38;62.01
85850;BME280;76337;42.850;-0.560;2024-02-26T09:47:10;87238.94;;;5.50;62.13
85850;BME280;76337;42.850;-0.560;2024-02-26T09:49:37;87255.09;;;5.69;65.03
85850;BME280;76337;42.850;-0.560;2024-02-26T09:52:04;87265.25;;;5.37;66.65
85850;BME280;76337;42.850;-0.560;2024-02-26T09:54:32;87264.81;;;5.32;65.66
85850;BME280;76337;42.850;-0.560;2024-02-26T09:57:00;87261.44;;;5.19;65.27
85850;BME280;76337;42.850;-0.560;2024-02-26T09:59:29;87254.94;;;5.12;63.08
85850;BME280;76337;42.850;-0.560;2024-02-26T10:02:02;87239.00;;;4.77;63.03
85850;BME280;76337;42.850;-0.560;2024-02-26T10:04:31;87246.63;;;4.51;63.66
85850;BME280;76337;42.850;-0.560;2024-02-26T10:06:57;87243.84;;;4.76;65.42
85850;BME280;76337;42.850;-0.560;2024-02-26T10:09:26;87243.41;;;4.84;65.51
85850;BME280;76337;42.850;-0.560;2024-02-26T10:11:53;87247.75;;;5.53;69.14
85850;BME280;76337;42.850;-0.560;2024-02-26T10:14:19;87240.72;;;5.43;64.20
85850;BME280;76337;42.850;-0.560;2024-02-26T10:16:45;87251.53;;;5.47;61.95
85850;BME280;76337;42.850;-0.560;2024-02-26T10:19:25;87247.00;;;5.54;64.33
85850;BME280;76337;42.850;-0.560;2024-02-26T10:21:56;87242.41;;;5.97;62.75
85850;BME280;76337;42.850;-0.560;2024-02-26T10:24:23;87244.19;;;6.13;59.12
85850;BME280;76337;42.850;-0.560;2024-02-26T10:26:49;87241.44;;;7.02;61.52
85850;BME280;76337;42.850;-0.560;2024-02-26T10:29:15;87241.22;;;7.37;56.95
85850;BME280;76337;42.850;-0.560;2024-02-26T10:31:42;87247.72;;;8.16;52.78
85850;BME280;76337;42.850;-0.560;2024-02-26T10:34:08;87225.81;;;8.23;55.04
85850;BME280;76337;42.850;-0.560;2024-02-26T10:36:34;87215.72;;;7.88;56.57
85850;BME280;76337;42.850;-0.560;2024-02-26T10:39:03;87215.78;;;8.17;51.90
85850;BME280;76337;42.850;-0.560;2024-02-26T10:41:30;87206.44;;;8.02;52.12
85850;BME280;76337;42.850;-0.560;2024-02-26T10:43:57;87209.63;;;8.47;52.44
85850;BME280;76337;42.850;-0.560;2024-02-26T10:46:22;87204.13;;;8.36;49.02
85850;BME280;76337;42.850;-0.560;2024-02-26T10:48:50;87206.66;;;7.47;52.21
85850;BME280;76337;42.850;-0.560;2024-02-26T10:51:20;87198.75;;;7.30;54.09
85850;BME280;76337;42.850;-0.560;2024-02-26T10:53:49;87200.47;;;7.46;53.48
85850;BME280;76337;42.850;-0.560;2024-02-26T10:56:19;87194.44;;;5.56;57.74
85850;BME280;76337;42.850;-0.560;2024-02-26T10:58:47;87192.72;;;5.15;59.50
85850;BME280;76337;42.850;-0.560;2024-02-26T11:01:13;87203.25;;;5.00;57.59
85850;BME280;76337;42.850;-0.560;2024-02-26T11:03:39;87195.78;;;5.21;63.56
85850;BME280;76337;42.850;-0.560;2024-02-26T11:06:06;87206.88;;;5.32;63.77
85850;BME280;76337;42.850;-0.560;2024-02-26T11:08:34;87198.97;;;5.26;56.69
85850;BME280;76337;42.850;-0.560;2024-02-26T11:11:01;87198.50;;;4.98;58.96
85850;BME280;76337;42.850;-0.560;2024-02-26T11:13:28;87202.91;;;5.06;63.31
85850;BME280;76337;42.850;-0.560;2024-02-26T11:15:56;87202.00;;;5.09;56.15
85850;BME280;76337;42.850;-0.560;2024-02-26T11:18:23;87201.00;;;5.15;62.00
85850;BME280;76337;42.850;-0.560;2024-02-26T11:20:52;87195.13;;;5.21;57.48
85850;BME280;76337;42.850;-0.560;2024-02-26T11:23:23;87196.28;;;5.37;55.83
85850;BME280;76337;42.850;-0.560;2024-02-26T11:25:50;87185.88;;;5.14;58.99
85850;BME280;76337;42.850;-0.560;2024-02-26T11:28:19;87190.28;;;5.09;60.80
85850;BME280;76337;42.850;-0.560;2024-02-26T11:30:47;87203.59;;;4.81;61.35
85850;BME280;76337;42.850;-0.560;2024-02-26T11:33:15;87195.22;;;4.83;59.69
85850;BME280;76337;42.850;-0.560;2024-02-26T11:35:41;87195.13;;;4.73;62.36
85850;BME280;76337;42.850;-0.560;2024-02-26T11:38:17;87191.47;;;4.76;61.61
85850;BME280;76337;42.850;-0.560;2024-02-26T11:40:46;87198.97;;;4.90;61.12
85850;BME280;76337;42.850;-0.560;2024-02-26T11:43:13;87199.44;;;4.82;58.79
85850;BME280;76337;42.850;-0.560;2024-02-26T11:45:54;87190.34;;;4.96;63.05
85850;BME280;76337;42.850;-0.560;2024-02-26T11:48:23;87185.25;;;5.01;60.21
85850;BME280;76337;42.850;-0.560;2024-02-26T11:50:52;87188.41;;;5.18;59.97
85850;BME280;76337;42.850;-0.560;2024-02-26T11:53:29;87196.44;;;5.22;57.63
85850;BME280;76337;42.850;-0.560;2024-02-26T11:58:43;87190.34;;;5.32;57.99
85850;BME280;76337;42.850;-0.560;2024-02-26T12:02:01;87192.63;;;5.40;57.89
85850;BME280;76337;42.850;-0.560;2024-02-26T12:04:18;87190.75;;;5.37;57.63
85850;BME280;76337;42.850;-0.560;2024-02-26T12:06:56;87191.31;;;5.39;61.82
85850;BME280;76337;42.850;-0.560;2024-02-26T12:09:39;87178.25;;;5.50;59.73
85850;BME280;76337;42.850;-0.560;2024-02-26T12:12:09;87178.41;;;5.59;56.92
85850;BME280;76337;42.850;-0.560;2024-02-26T12:14:53;87158.34;;;5.24;59.81
85850;BME280;76337;42.850;-0.560;2024-02-26T12:17:22;87160.06;;;5.19;60.15
85850;BME280;76337;42.850;-0.560;2024-02-26T12:19:49;87158.53;;;5.10;60.21
85850;BME280;76337;42.850;-0.560;2024-02-26T12:22:18;87156.38;;;5.23;63.46
85850;BME280;76337;42.850;-0.560;2024-02-26T12:24:44;87141.53;;;5.41;63.29
85850;BME280;76337;42.850;-0.560;2024-02-26T12:27:11;87143.16;;;5.82;60.20
85850;BME280;76337;42.850;-0.560;2024-02-26T12:29:37;87142.00;;;6.24;60.84
85850;BME280;76337;42.850;-0.560;2024-02-26T12:32:04;87137.06;;;6.47;60.52
85850;BME280;76337;42.850;-0.560;2024-02-26T12:34:31;87135.50;;;6.82;57.57
85850;BME280;76337;42.850;-0.560;2024-02-26T12:36:57;87134.75;;;6.84;55.78
85850;BME280;76337;42.850;-0.560;2024-02-26T12:39:24;87129.56;;;6.46;58.82
85850;BME280;76337;42.850;-0.560;2024-02-26T12:41:51;87150.44;;;6.32;56.36
85850;BME280;76337;42.850;-0.560;2024-02-26T12:44:17;87144.28;;;5.87;60.53
85850;BME280;76337;42.850;-0.560;2024-02-26T12:46:44;87141.06;;;5.83;60.06
85850;BME280;76337;42.850;-0.560;2024-02-26T12:49:15;87148.59;;;5.38;60.89
85850;BME280;76337;42.850;-0.560;2024-02-26T12:51:45;87138.47;;;5.35;63.27
85850;BME280;76337;42.850;-0.560;2024-02-26T12:54:11;87134.56;;;5.42;63.40
85850;BME280;76337;42.850;-0.560;2024-02-26T12:56:39;87139.66;;;5.38;64.78
85850;BME280;76337;42.850;-0.560;2024-02-26T12:59:05;87132.03;;;5.15;59.29
85850;BME280;76337;42.850;-0.560;2024-02-26T13:01:31;87142.22;;;5.06;64.31
85850;BME280;76337;42.850;-0.560;2024-02-26T13:03:58;87131.25;;;5.16;64.28